Terminal Aerodrome Forecast
Issued by NWS

Home | Current Version | Previous Version | Text Only | Print | Product List | Glossary On
Versions: 1 2 3 4 5 6 7 8 9 10 11 12
000
FTUS45 KPSR 152300
TAFBLH
TAF
KBLH 152328Z 1600/1624 06005KT P6SM FEW100
     FM160600 18011G20KT P6SM FEW025 SCT100
      TEMPO 1613/1616 BKN025
     FM161700 17012KT P6SM SCT035 SCT120=

USA.gov is the U.S. government's official web portal to all federal, state and local government web resources and services.